createdAt,value
2024-03-16T00:01:46.873Z,6.04
2024-03-16T00:04:14.996Z,6.05
2024-03-16T00:06:43.200Z,6.11
2024-03-16T00:09:11.947Z,6.13
2024-03-16T00:11:40.097Z,6.13
2024-03-16T00:14:08.280Z,6.15
2024-03-16T00:16:37.522Z,6.15
2024-03-16T00:19:05.820Z,6.12
2024-03-16T00:21:33.926Z,6.07
2024-03-16T00:24:02.072Z,6.03
2024-03-16T00:26:30.573Z,5.96
2024-03-16T00:28:59.429Z,5.89
2024-03-16T00:31:28.673Z,5.82
2024-03-16T00:33:56.827Z,5.74
2024-03-16T00:36:24.818Z,5.67
2024-03-16T00:38:55.081Z,5.61
2024-03-16T00:41:24.182Z,5.56
2024-03-16T00:43:52.412Z,5.51
2024-03-16T00:46:20.502Z,5.46
2024-03-16T00:48:48.631Z,5.41
2024-03-16T00:51:16.739Z,5.37
2024-03-16T00:53:44.824Z,5.33
2024-03-16T00:56:13.201Z,5.30
2024-03-16T00:58:41.249Z,5.29
2024-03-16T01:01:10.835Z,5.27
2024-03-16T01:03:39.792Z,5.24
2024-03-16T01:06:07.971Z,5.22
2024-03-16T01:08:36.253Z,5.23
2024-03-16T01:11:04.511Z,5.21
2024-03-16T01:13:32.470Z,5.20
2024-03-16T01:16:00.715Z,5.21
2024-03-16T01:18:30.106Z,5.22
2024-03-16T01:20:58.727Z,5.22
2024-03-16T01:23:26.877Z,5.21
2024-03-16T01:25:55.005Z,5.19
2024-03-16T01:28:23.104Z,5.20
2024-03-16T01:30:51.215Z,5.21
2024-03-16T01:33:20.164Z,5.24
2024-03-16T01:35:51.245Z,5.29
2024-03-16T01:38:19.401Z,5.34
2024-03-16T01:40:47.846Z,5.38
2024-03-16T01:43:15.840Z,5.44
2024-03-16T01:45:44.493Z,5.50
2024-03-16T01:48:13.518Z,5.57
2024-03-16T01:50:42.757Z,5.68
2024-03-16T01:53:10.846Z,5.80
2024-03-16T01:55:39.456Z,5.93
2024-03-16T01:58:08.144Z,6.09
2024-03-16T02:00:37.136Z,6.23
2024-03-16T02:03:05.736Z,6.34
2024-03-16T02:05:37.343Z,6.44
2024-03-16T02:08:05.581Z,6.55
2024-03-16T02:10:33.643Z,6.67
2024-03-16T02:13:01.687Z,6.79
2024-03-16T02:15:29.677Z,6.89
2024-03-16T02:17:57.760Z,6.97
2024-03-16T02:20:27.683Z,7.06
2024-03-16T02:22:56.062Z,7.16
2024-03-16T02:25:24.227Z,7.22
2024-03-16T02:27:52.208Z,7.28
2024-03-16T02:30:20.357Z,7.35
2024-03-16T02:32:48.572Z,7.42
2024-03-16T02:35:17.025Z,7.46
2024-03-16T02:37:44.993Z,7.49
2024-03-16T02:40:13.453Z,7.52
2024-03-16T02:42:43.312Z,7.54
2024-03-16T02:45:12.259Z,7.56
2024-03-16T02:47:40.692Z,7.58
2024-03-16T02:50:11.232Z,7.59
2024-03-16T02:52:39.277Z,7.59
2024-03-16T02:55:07.487Z,7.55
2024-03-16T02:57:35.578Z,7.55
2024-03-16T03:00:11.987Z,7.54
2024-03-16T03:02:40.293Z,7.51
2024-03-16T03:05:12.518Z,7.48
2024-03-16T03:07:41.195Z,7.47
2024-03-16T03:10:10.144Z,7.47
2024-03-16T03:12:40.204Z,7.47
2024-03-16T03:15:10.310Z,7.48
2024-03-16T03:17:39.842Z,7.50
2024-03-16T03:20:09.788Z,7.48
2024-03-16T03:22:38.042Z,7.47
2024-03-16T03:25:06.755Z,7.48
2024-03-16T03:27:35.719Z,7.47
2024-03-16T03:30:04.212Z,7.45
2024-03-16T03:32:32.252Z,7.41
2024-03-16T03:35:00.369Z,7.36
2024-03-16T03:37:28.386Z,7.30
2024-03-16T03:39:56.854Z,7.25
2024-03-16T03:42:30.664Z,7.20
2024-03-16T03:45:12.079Z,7.15
2024-03-16T03:48:01.476Z,7.10
2024-03-16T03:50:30.463Z,7.04
2024-03-16T03:53:08.094Z,6.99
2024-03-16T03:55:36.160Z,6.94
2024-03-16T03:58:04.513Z,6.91
2024-03-16T04:00:34.099Z,6.89
2024-03-16T04:03:03.898Z,6.88
2024-03-16T04:05:32.207Z,6.87
2024-03-16T04:08:01.466Z,6.82
2024-03-16T04:10:29.525Z,6.79
2024-03-16T04:12:57.720Z,6.79
2024-03-16T04:15:26.727Z,6.79
2024-03-16T04:17:55.076Z,6.80
2024-03-16T04:20:23.258Z,6.80
2024-03-16T04:22:51.606Z,6.82
2024-03-16T04:25:19.830Z,6.84
2024-03-16T04:27:47.930Z,6.86
2024-03-16T04:30:15.965Z,6.88
2024-03-16T04:32:43.992Z,6.90
2024-03-16T04:35:13.026Z,6.91
2024-03-16T04:37:41.278Z,6.93
2024-03-16T04:40:09.621Z,6.94
2024-03-16T04:42:38.246Z,6.92
2024-03-16T04:45:06.784Z,6.89
2024-03-16T04:47:34.861Z,6.86
2024-03-16T04:50:02.993Z,6.84
2024-03-16T04:52:30.912Z,6.76
2024-03-16T04:54:59.063Z,6.67
2024-03-16T04:57:27.123Z,6.58
2024-03-16T04:59:55.134Z,6.49
2024-03-16T05:02:23.114Z,6.38
2024-03-16T05:04:51.077Z,6.29
2024-03-16T05:07:19.509Z,6.24
2024-03-16T05:09:48.134Z,6.19
2024-03-16T05:12:16.228Z,6.12
2024-03-16T05:14:44.153Z,6.08
2024-03-16T05:17:12.176Z,6.07
2024-03-16T05:19:40.114Z,6.11
2024-03-16T05:22:08.910Z,6.17
2024-03-16T05:24:37.144Z,6.23
2024-03-16T05:27:06.044Z,6.28
2024-03-16T05:29:34.149Z,6.35
2024-03-16T05:32:02.701Z,6.42
2024-03-16T05:34:30.645Z,6.51
2024-03-16T05:36:59.190Z,6.60
2024-03-16T05:39:28.551Z,6.72
2024-03-16T05:41:56.857Z,6.82
2024-03-16T05:44:24.829Z,6.87
2024-03-16T05:46:52.872Z,6.93
2024-03-16T05:49:20.872Z,6.97
2024-03-16T05:51:49.077Z,7.02
2024-03-16T05:54:17.585Z,7.06
2024-03-16T05:56:45.580Z,7.12
2024-03-16T05:59:13.614Z,7.14
2024-03-16T06:01:43.805Z,7.17
2024-03-16T06:04:11.784Z,7.19
2024-03-16T06:06:39.768Z,7.21
2024-03-16T06:09:09.845Z,7.24
2024-03-16T06:11:38.032Z,7.27
2024-03-16T06:14:06.072Z,7.33
2024-03-16T06:16:34.079Z,7.41
2024-03-16T06:19:02.139Z,7.50
2024-03-16T06:21:30.474Z,7.61
2024-03-16T06:23:59.495Z,7.73
2024-03-16T06:26:29.324Z,7.85
2024-03-16T06:29:06.350Z,7.95
2024-03-16T06:31:36.822Z,8.02
2024-03-16T06:34:08.671Z,8.09
2024-03-16T06:36:39.683Z,8.17
2024-03-16T06:39:12.519Z,8.27
2024-03-16T06:41:40.880Z,8.37
2024-03-16T06:44:08.884Z,8.44
2024-03-16T06:46:36.889Z,8.50
2024-03-16T06:49:07.650Z,8.56
2024-03-16T06:51:36.594Z,8.61
2024-03-16T06:54:05.231Z,8.65
2024-03-16T06:56:33.352Z,8.71
2024-03-16T06:59:01.722Z,8.77
2024-03-16T07:01:30.001Z,8.83
2024-03-16T07:03:58.260Z,8.88
2024-03-16T07:06:27.424Z,8.92
2024-03-16T07:08:57.498Z,8.97
2024-03-16T07:11:25.488Z,9.01
2024-03-16T07:13:55.638Z,9.06
2024-03-16T07:16:24.606Z,9.14
2024-03-16T07:18:52.741Z,9.22
2024-03-16T07:21:23.390Z,9.29
2024-03-16T07:23:52.489Z,9.35
2024-03-16T07:26:20.828Z,9.41
2024-03-16T07:28:48.849Z,9.51
2024-03-16T07:31:16.893Z,9.63
2024-03-16T07:33:45.752Z,9.76
2024-03-16T07:36:13.983Z,9.91
2024-03-16T07:38:41.992Z,10.05
2024-03-16T07:41:10.086Z,10.20
2024-03-16T07:43:38.124Z,10.33
2024-03-16T07:46:08.531Z,10.44
2024-03-16T07:48:39.466Z,10.57
2024-03-16T07:51:08.047Z,10.70
2024-03-16T07:53:37.051Z,10.85
2024-03-16T07:56:05.910Z,10.99
2024-03-16T07:58:33.946Z,11.10
2024-03-16T08:01:02.119Z,11.19
2024-03-16T08:03:32.552Z,11.29
2024-03-16T08:06:05.089Z,11.36
2024-03-16T08:08:33.070Z,11.44
2024-03-16T08:11:01.739Z,11.52
2024-03-16T08:13:29.844Z,11.59
2024-03-16T08:16:00.272Z,11.65
2024-03-16T08:18:29.437Z,11.71
2024-03-16T08:21:01.039Z,11.77
2024-03-16T08:23:30.498Z,11.86
2024-03-16T08:25:58.639Z,11.96
2024-03-16T08:28:27.093Z,12.02
2024-03-16T08:30:55.268Z,12.12
2024-03-16T08:33:23.514Z,12.19
2024-03-16T08:35:51.436Z,12.27
2024-03-16T08:38:20.867Z,12.33
2024-03-16T08:40:48.963Z,12.41
2024-03-16T08:43:17.602Z,12.49
2024-03-16T08:45:47.889Z,12.59
2024-03-16T08:48:16.197Z,12.68
2024-03-16T08:50:44.704Z,12.74
2024-03-16T08:53:12.786Z,12.77
2024-03-16T08:55:40.802Z,12.78
2024-03-16T08:58:09.502Z,12.77
2024-03-16T09:00:37.700Z,12.78
2024-03-16T09:03:06.080Z,12.79
2024-03-16T09:05:34.871Z,12.81
2024-03-16T09:08:03.103Z,12.83
2024-03-16T09:10:31.137Z,12.84
2024-03-16T09:12:59.202Z,12.85
2024-03-16T09:15:27.399Z,12.85
2024-03-16T09:17:55.704Z,12.86
2024-03-16T09:20:23.683Z,12.87
2024-03-16T09:22:53.760Z,12.89
2024-03-16T09:25:21.725Z,12.87
2024-03-16T09:27:49.781Z,12.81
2024-03-16T09:30:19.879Z,12.74
2024-03-16T09:32:48.235Z,12.66
2024-03-16T09:35:16.061Z,12.57
2024-03-16T09:37:44.970Z,12.43
2024-03-16T09:40:14.740Z,12.34
2024-03-16T09:42:43.285Z,12.29
2024-03-16T09:45:18.648Z,12.24
2024-03-16T09:47:50.392Z,12.19
2024-03-16T09:50:21.627Z,12.10
2024-03-16T09:52:50.717Z,12.03
2024-03-16T09:55:21.419Z,11.99
2024-03-16T09:57:52.235Z,11.94
2024-03-16T10:00:22.628Z,11.89
2024-03-16T10:02:51.938Z,11.80
2024-03-16T10:05:19.998Z,11.72
2024-03-16T10:07:48.948Z,11.68
2024-03-16T10:10:18.695Z,11.66
2024-03-16T10:12:47.306Z,11.65
2024-03-16T10:15:23.959Z,11.65
2024-03-16T10:17:53.868Z,11.68
2024-03-16T10:20:21.884Z,11.73
2024-03-16T10:22:52.095Z,11.76
2024-03-16T10:25:20.241Z,11.79
2024-03-16T10:27:48.337Z,11.80
2024-03-16T10:30:17.479Z,11.81
2024-03-16T10:32:50.525Z,11.80
2024-03-16T10:35:32.151Z,11.74
2024-03-16T10:38:00.842Z,11.70
2024-03-16T10:40:29.946Z,11.67
2024-03-16T10:42:59.925Z,11.66
2024-03-16T10:45:31.734Z,11.64
2024-03-16T10:48:03.618Z,11.62
2024-03-16T10:50:31.662Z,11.62
2024-03-16T10:53:02.012Z,11.63
2024-03-16T10:55:31.060Z,11.63
2024-03-16T10:58:01.159Z,11.64
2024-03-16T11:00:36.112Z,11.66
2024-03-16T11:03:12.648Z,11.70
2024-03-16T11:05:55.521Z,11.77
2024-03-16T11:08:43.539Z,11.86
2024-03-16T11:11:18.450Z,11.95
2024-03-16T11:13:59.653Z,12.06
2024-03-16T11:16:34.956Z,12.17
2024-03-16T11:19:08.635Z,12.31
2024-03-16T11:21:39.457Z,12.43
2024-03-16T11:24:14.949Z,12.55
2024-03-16T11:26:46.168Z,12.68
2024-03-16T11:29:15.625Z,12.79
2024-03-16T11:31:47.511Z,12.90
2024-03-16T11:34:17.808Z,13.01
2024-03-16T11:36:50.097Z,13.14
2024-03-16T11:39:25.395Z,13.23
2024-03-16T11:42:07.222Z,13.35
2024-03-16T11:44:38.143Z,13.47
2024-03-16T11:47:07.890Z,13.56
2024-03-16T11:49:36.438Z,13.65
2024-03-16T11:52:05.813Z,13.73
2024-03-16T11:54:33.863Z,13.80
2024-03-16T11:57:02.202Z,13.91
2024-03-16T11:59:30.166Z,14.06
2024-03-16T12:01:58.286Z,14.22
2024-03-16T12:04:29.874Z,14.40
2024-03-16T12:07:00.882Z,14.51
2024-03-16T12:09:34.786Z,14.66
2024-03-16T12:12:08.801Z,14.91
2024-03-16T12:14:43.370Z,15.10
2024-03-16T12:17:17.758Z,15.28
2024-03-16T12:19:46.462Z,15.44
2024-03-16T12:22:16.383Z,15.61
2024-03-16T12:24:44.553Z,15.78
2024-03-16T12:27:18.178Z,15.93
2024-03-16T12:29:50.491Z,15.99
2024-03-16T12:32:22.399Z,16.08
2024-03-16T12:34:53.155Z,16.06
2024-03-16T12:37:24.229Z,16.07
2024-03-16T12:39:55.678Z,16.07
2024-03-16T12:42:23.841Z,16.09
2024-03-16T12:44:53.798Z,16.04
2024-03-16T12:47:24.142Z,16.06
2024-03-16T12:49:52.364Z,16.13
2024-03-16T12:52:24.358Z,16.20
2024-03-16T12:54:59.212Z,16.26
2024-03-16T12:57:32.327Z,16.36
2024-03-16T13:00:06.992Z,16.43
2024-03-16T13:02:38.648Z,16.52
2024-03-16T13:05:15.115Z,16.58
2024-03-16T13:07:44.002Z,16.60
2024-03-16T13:10:12.214Z,16.67
2024-03-16T13:12:43.013Z,16.71
2024-03-16T13:15:17.603Z,16.67
2024-03-16T13:17:48.212Z,16.67
2024-03-16T13:20:18.809Z,16.72
2024-03-16T13:23:01.307Z,16.82
2024-03-16T13:25:37.229Z,16.90
2024-03-16T13:28:05.378Z,16.97
2024-03-16T13:30:33.541Z,17.00
2024-03-16T13:33:01.987Z,17.05
2024-03-16T13:35:30.420Z,17.10
2024-03-16T13:37:58.368Z,17.18
2024-03-16T13:40:27.166Z,17.24
2024-03-16T13:42:55.475Z,17.27
2024-03-16T13:45:23.462Z,17.35
2024-03-16T13:47:59.049Z,17.39
2024-03-16T13:50:27.239Z,17.39
2024-03-16T13:53:07.333Z,17.42
2024-03-16T13:55:35.621Z,17.47
2024-03-16T13:58:05.855Z,17.50
2024-03-16T14:00:34.772Z,17.54
2024-03-16T14:03:05.114Z,17.57
2024-03-16T14:05:33.100Z,17.58
2024-03-16T14:08:01.386Z,17.59
2024-03-16T14:10:31.035Z,17.56
2024-03-16T14:12:59.099Z,17.57
2024-03-16T14:15:27.210Z,17.56
2024-03-16T14:17:55.232Z,17.52
2024-03-16T14:20:29.334Z,17.47
2024-03-16T14:22:57.630Z,17.45
2024-03-16T14:25:27.167Z,17.43
2024-03-16T14:27:57.908Z,17.36
2024-03-16T14:30:26.334Z,17.26
2024-03-16T14:32:54.416Z,17.19
2024-03-16T14:35:22.551Z,17.14
2024-03-16T14:37:50.563Z,17.07
2024-03-16T14:40:22.950Z,17.01
2024-03-16T14:42:51.258Z,16.94
2024-03-16T14:45:19.189Z,16.86
2024-03-16T14:47:47.286Z,16.79
2024-03-16T14:50:15.531Z,16.71
2024-03-16T14:52:44.087Z,16.64
2024-03-16T14:55:11.957Z,16.56
2024-03-16T14:57:40.113Z,16.46
2024-03-16T15:00:08.739Z,16.42
2024-03-16T15:02:36.885Z,16.39
2024-03-16T15:05:07.098Z,16.37
2024-03-16T15:07:35.283Z,16.33
2024-03-16T15:10:03.539Z,16.29
2024-03-16T15:12:31.690Z,16.23
2024-03-16T15:15:00.178Z,16.19
2024-03-16T15:17:28.429Z,16.12
2024-03-16T15:19:56.539Z,16.06
2024-03-16T15:22:24.554Z,16.03
2024-03-16T15:24:54.870Z,15.94
2024-03-16T15:27:22.945Z,15.85
2024-03-16T15:29:50.844Z,15.79
2024-03-16T15:32:18.866Z,15.76
2024-03-16T15:34:47.170Z,15.66
2024-03-16T15:37:15.513Z,15.58
2024-03-16T15:39:45.559Z,15.50
2024-03-16T15:42:14.579Z,15.43
2024-03-16T15:44:42.684Z,15.37
2024-03-16T15:47:11.273Z,15.31
2024-03-16T15:49:39.330Z,15.25
2024-03-16T15:52:15.965Z,15.19
2024-03-16T15:54:48.885Z,15.12
2024-03-16T15:57:17.291Z,15.03
2024-03-16T15:59:46.422Z,14.94
2024-03-16T16:02:14.593Z,14.82
2024-03-16T16:04:42.631Z,14.70
2024-03-16T16:07:10.690Z,14.60
2024-03-16T16:09:38.726Z,14.49
2024-03-16T16:12:07.020Z,14.39
2024-03-16T16:14:35.185Z,14.31
2024-03-16T16:17:04.542Z,14.20
2024-03-16T16:19:32.547Z,14.08
2024-03-16T16:22:00.628Z,13.91
2024-03-16T16:24:28.752Z,13.68
2024-03-16T16:26:59.302Z,13.46
2024-03-16T16:29:31.364Z,13.23
2024-03-16T16:31:59.318Z,13.00
2024-03-16T16:34:28.489Z,12.75
2024-03-16T16:36:57.070Z,12.55
2024-03-16T16:39:25.038Z,12.40
2024-03-16T16:41:53.230Z,12.24
2024-03-16T16:44:21.775Z,12.08
2024-03-16T16:46:50.116Z,11.92
2024-03-16T16:49:18.033Z,11.78
2024-03-16T16:51:46.084Z,11.68
2024-03-16T16:54:14.217Z,11.60
2024-03-16T16:56:42.211Z,11.54
2024-03-16T16:59:10.258Z,11.48
2024-03-16T17:01:38.231Z,11.43
2024-03-16T17:04:07.112Z,11.38
2024-03-16T17:06:35.192Z,11.34
2024-03-16T17:09:03.488Z,11.30
2024-03-16T17:11:31.523Z,11.26
2024-03-16T17:13:59.791Z,11.22
2024-03-16T17:16:27.856Z,11.19
2024-03-16T17:18:55.804Z,11.16
2024-03-16T17:21:23.863Z,11.14
2024-03-16T17:23:53.397Z,11.12
2024-03-16T17:26:24.116Z,11.10
2024-03-16T17:28:52.153Z,11.07
2024-03-16T17:31:20.310Z,11.07
2024-03-16T17:33:48.368Z,11.05
2024-03-16T17:36:16.409Z,11.03
2024-03-16T17:38:44.472Z,11.02
2024-03-16T17:41:12.467Z,11.01
2024-03-16T17:43:40.575Z,11.00
2024-03-16T17:46:08.637Z,10.96
2024-03-16T17:48:37.479Z,10.92
2024-03-16T17:51:05.522Z,10.89
2024-03-16T17:53:33.493Z,10.87
2024-03-16T17:56:03.536Z,10.84
2024-03-16T17:58:31.640Z,10.82
2024-03-16T18:01:00.309Z,10.80
2024-03-16T18:03:28.610Z,10.78
2024-03-16T18:05:57.598Z,10.76
2024-03-16T18:08:25.698Z,10.75
2024-03-16T18:10:54.443Z,10.73
2024-03-16T18:13:22.577Z,10.71
2024-03-16T18:15:54.039Z,10.68
2024-03-16T18:18:22.185Z,10.66
2024-03-16T18:20:50.188Z,10.65
2024-03-16T18:23:18.412Z,10.64
2024-03-16T18:25:47.248Z,10.63
2024-03-16T18:28:15.394Z,10.61
2024-03-16T18:30:44.105Z,10.60
2024-03-16T18:33:13.541Z,10.59
2024-03-16T18:35:42.055Z,10.58
2024-03-16T18:38:09.982Z,10.58
2024-03-16T18:40:38.828Z,10.58
2024-03-16T18:43:08.244Z,10.57
2024-03-16T18:45:39.571Z,10.56
2024-03-16T18:48:09.086Z,10.55
2024-03-16T18:50:38.552Z,10.55
2024-03-16T18:53:07.964Z,10.54
2024-03-16T18:55:40.688Z,10.54
2024-03-16T18:58:08.888Z,10.53
2024-03-16T19:00:39.848Z,10.50
2024-03-16T19:03:08.728Z,10.48
2024-03-16T19:05:36.864Z,10.46
2024-03-16T19:08:06.639Z,10.45
2024-03-16T19:10:35.316Z,10.43
2024-03-16T19:13:05.739Z,10.44
2024-03-16T19:15:33.791Z,10.44
2024-03-16T19:18:01.843Z,10.46
2024-03-16T19:20:29.816Z,10.48
2024-03-16T19:23:00.825Z,10.50
2024-03-16T19:25:28.845Z,10.50
2024-03-16T19:27:56.961Z,10.50
2024-03-16T19:30:25.182Z,10.50
2024-03-16T19:32:53.290Z,10.51
2024-03-16T19:35:23.756Z,10.52
2024-03-16T19:37:53.272Z,10.52
2024-03-16T19:40:21.532Z,10.51
2024-03-16T19:42:50.971Z,10.51
2024-03-16T19:45:19.036Z,10.52
2024-03-16T19:47:46.993Z,10.52
2024-03-16T19:50:19.251Z,10.51
2024-03-16T19:52:49.250Z,10.49
2024-03-16T19:55:18.697Z,10.48
2024-03-16T19:57:46.803Z,10.47
2024-03-16T20:00:20.712Z,10.47
2024-03-16T20:02:49.223Z,10.44
2024-03-16T20:05:20.278Z,10.40
2024-03-16T20:07:48.267Z,10.39
2024-03-16T20:10:16.363Z,10.36
2024-03-16T20:12:44.495Z,10.32
2024-03-16T20:15:12.524Z,10.29
2024-03-16T20:17:40.657Z,10.25
2024-03-16T20:20:16.254Z,10.20
2024-03-16T20:22:44.188Z,10.14
2024-03-16T20:25:12.279Z,10.06
2024-03-16T20:27:40.569Z,9.97
2024-03-16T20:30:09.220Z,9.89
2024-03-16T20:32:37.600Z,9.83
2024-03-16T20:35:10.228Z,9.79
2024-03-16T20:37:38.201Z,9.75
2024-03-16T20:40:08.028Z,9.70
2024-03-16T20:42:36.138Z,9.68
2024-03-16T20:45:08.270Z,9.64
2024-03-16T20:47:36.399Z,9.62
2024-03-16T20:50:07.558Z,9.61
2024-03-16T20:52:37.213Z,9.61
2024-03-16T20:55:08.528Z,9.61
2024-03-16T20:57:39.122Z,9.61
2024-03-16T21:00:10.457Z,9.61
2024-03-16T21:02:38.997Z,9.61
2024-03-16T21:05:07.485Z,9.60
2024-03-16T21:07:38.612Z,9.61
2024-03-16T21:10:07.983Z,9.60
2024-03-16T21:12:36.390Z,9.60
2024-03-16T21:15:09.784Z,9.62
2024-03-16T21:17:37.839Z,9.63
2024-03-16T21:20:11.731Z,9.63
2024-03-16T21:22:43.454Z,9.65
2024-03-16T21:25:16.443Z,9.66
2024-03-16T21:27:49.787Z,9.68
2024-03-16T21:30:18.072Z,9.68
2024-03-16T21:32:47.023Z,9.69
2024-03-16T21:35:20.768Z,9.70
2024-03-16T21:37:51.336Z,9.70
2024-03-16T21:40:21.506Z,9.71
2024-03-16T21:42:50.308Z,9.72
2024-03-16T21:45:19.745Z,9.75
2024-03-16T21:47:49.180Z,9.76
2024-03-16T21:50:17.785Z,9.79
2024-03-16T21:52:48.661Z,9.81
2024-03-16T21:55:18.634Z,9.81
2024-03-16T21:57:46.921Z,9.80
2024-03-16T22:00:16.547Z,9.80
2024-03-16T22:02:45.713Z,9.80
2024-03-16T22:05:15.262Z,9.80
2024-03-16T22:07:45.381Z,9.81
2024-03-16T22:10:16.799Z,9.82
2024-03-16T22:12:48.174Z,9.83
2024-03-16T22:15:17.801Z,9.82
2024-03-16T22:17:45.953Z,9.81
2024-03-16T22:20:14.397Z,9.82
2024-03-16T22:22:49.472Z,9.82
2024-03-16T22:25:21.319Z,9.84
2024-03-16T22:27:49.835Z,9.84
2024-03-16T22:30:18.513Z,9.84
2024-03-16T22:32:46.705Z,9.85
2024-03-16T22:35:15.085Z,9.86
2024-03-16T22:37:43.424Z,9.87
2024-03-16T22:40:14.359Z,9.88
2024-03-16T22:42:42.544Z,9.88
2024-03-16T22:45:17.579Z,9.87
2024-03-16T22:47:45.476Z,9.87
2024-03-16T22:50:14.021Z,9.85
2024-03-16T22:52:43.555Z,9.84
2024-03-16T22:55:11.937Z,9.82
2024-03-16T22:57:40.022Z,9.80
2024-03-16T23:00:20.259Z,9.80
2024-03-16T23:02:48.584Z,9.78
2024-03-16T23:05:16.952Z,9.76
2024-03-16T23:07:46.004Z,9.75
2024-03-16T23:10:13.954Z,9.73
2024-03-16T23:12:42.442Z,9.72
2024-03-16T23:15:10.492Z,9.72
2024-03-16T23:17:38.785Z,9.71
2024-03-16T23:20:08.592Z,9.70
2024-03-16T23:22:38.569Z,9.69
2024-03-16T23:25:06.761Z,9.70
2024-03-16T23:27:34.742Z,9.69
2024-03-16T23:30:03.647Z,9.71
2024-03-16T23:32:32.112Z,9.72
2024-03-16T23:35:00.007Z,9.72
2024-03-16T23:37:32.470Z,9.72
2024-03-16T23:40:01.386Z,9.71
2024-03-16T23:42:29.798Z,9.72
2024-03-16T23:44:57.897Z,9.72
2024-03-16T23:47:26.046Z,9.71
2024-03-16T23:49:53.980Z,9.70
2024-03-16T23:52:21.968Z,9.70
2024-03-16T23:54:51.632Z,9.71
2024-03-16T23:57:20.073Z,9.70
2024-03-16T23:59:48.002Z,9.70
